createdAt,value
2017-07-15T00:00:08.442Z,77.34
2017-07-15T00:02:34.919Z,78.08
2017-07-15T00:05:01.314Z,76.00
2017-07-15T00:07:27.730Z,75.41
2017-07-15T00:09:54.109Z,74.25
2017-07-15T00:12:20.459Z,76.73
2017-07-15T00:14:46.819Z,76.14
2017-07-15T00:17:13.214Z,76.81
2017-07-15T00:19:39.563Z,78.55
2017-07-15T00:22:24.308Z,77.61
2017-07-15T00:24:51.310Z,75.04
2017-07-15T00:27:17.700Z,73.21
2017-07-15T00:29:44.040Z,76.14
2017-07-15T00:32:10.390Z,73.85
2017-07-15T00:34:36.743Z,78.00
2017-07-15T00:37:03.144Z,77.23
2017-07-15T00:39:29.538Z,75.89
2017-07-15T00:41:55.906Z,74.61
2017-07-15T00:44:22.244Z,79.98
2017-07-15T00:46:48.639Z,77.92
2017-07-15T00:49:14.976Z,75.19
2017-07-15T00:51:41.334Z,74.03
2017-07-15T00:54:07.717Z,76.61
2017-07-15T00:56:34.098Z,74.66
2017-07-15T00:59:00.447Z,76.81
2017-07-15T01:01:26.860Z,75.29
2017-07-15T01:03:53.286Z,77.56
2017-07-15T01:06:20.245Z,76.35
2017-07-15T01:08:46.675Z,79.27
2017-07-15T01:11:13.048Z,76.73
2017-07-15T01:13:39.486Z,78.18
2017-07-15T01:16:05.841Z,79.16
2017-07-15T01:18:32.265Z,79.96
2017-07-15T01:20:59.414Z,75.21
2017-07-15T01:23:26.458Z,77.32
2017-07-15T01:25:53.554Z,78.82
2017-07-15T01:28:19.966Z,78.10
2017-07-15T01:30:46.653Z,77.85
2017-07-15T01:33:13.116Z,75.71
2017-07-15T01:35:39.461Z,75.71
2017-07-15T01:38:17.069Z,78.87
2017-07-15T01:40:43.976Z,81.23
2017-07-15T01:43:20.148Z,76.71
2017-07-15T01:45:46.839Z,80.41
2017-07-15T01:48:13.743Z,80.37
2017-07-15T01:50:41.768Z,78.70
2017-07-15T01:53:08.204Z,81.98
2017-07-15T01:55:36.786Z,78.71
2017-07-15T01:58:03.244Z,80.79
2017-07-15T02:00:29.689Z,78.92
2017-07-15T02:02:56.668Z,79.24
2017-07-15T02:05:23.045Z,82.17
2017-07-15T02:07:49.452Z,80.30
2017-07-15T02:10:15.838Z,82.70
2017-07-15T02:12:43.163Z,78.44
2017-07-15T02:15:09.691Z,84.10
2017-07-15T02:17:36.078Z,86.29
2017-07-15T02:20:02.475Z,84.13
2017-07-15T02:22:28.911Z,80.86
2017-07-15T02:24:55.296Z,82.04
2017-07-15T02:27:21.686Z,85.52
2017-07-15T02:29:48.131Z,80.96
2017-07-15T02:32:14.500Z,79.27
2017-07-15T02:34:40.846Z,81.04
2017-07-15T02:37:07.468Z,79.02
2017-07-15T02:39:33.888Z,85.21
2017-07-15T02:42:00.267Z,84.82
2017-07-15T02:44:26.709Z,82.17
2017-07-15T02:46:53.095Z,83.63
2017-07-15T02:49:19.465Z,83.10
2017-07-15T02:51:45.817Z,82.13
2017-07-15T02:54:12.265Z,82.22
2017-07-15T02:56:38.667Z,78.16
2017-07-15T02:59:05.132Z,81.41
2017-07-15T03:01:31.695Z,82.58
2017-07-15T03:03:58.133Z,79.06
2017-07-15T03:06:24.534Z,83.21
2017-07-15T03:08:50.966Z,79.09
2017-07-15T03:11:17.383Z,80.43
2017-07-15T03:13:43.786Z,81.74
2017-07-15T03:16:10.279Z,83.39
2017-07-15T03:18:36.676Z,82.17
2017-07-15T03:21:03.126Z,79.69
2017-07-15T03:23:29.571Z,83.12
2017-07-15T03:25:56.022Z,80.25
2017-07-15T03:28:22.494Z,81.99
2017-07-15T03:30:49.071Z,80.91
2017-07-15T03:33:15.459Z,82.48
2017-07-15T03:35:41.877Z,80.17
2017-07-15T03:38:08.281Z,83.72
2017-07-15T03:40:34.643Z,79.05
2017-07-15T03:43:01.027Z,78.98
2017-07-15T03:45:27.388Z,82.51
2017-07-15T03:47:53.812Z,78.42
2017-07-15T03:50:20.262Z,78.11
2017-07-15T03:52:46.671Z,80.49
2017-07-15T03:55:13.060Z,79.12
2017-07-15T03:57:39.413Z,80.32
2017-07-15T04:00:05.761Z,82.06
2017-07-15T04:02:32.137Z,79.00
2017-07-15T04:04:58.545Z,80.81
2017-07-15T04:07:24.945Z,80.33
2017-07-15T04:09:51.307Z,79.79
2017-07-15T04:12:17.678Z,80.91
2017-07-15T04:14:44.122Z,81.49
2017-07-15T04:17:10.539Z,84.01
2017-07-15T04:19:36.926Z,79.31
2017-07-15T04:22:03.306Z,80.87
2017-07-15T04:24:29.709Z,79.20
2017-07-15T04:26:56.131Z,83.06
2017-07-15T04:29:22.556Z,80.57
2017-07-15T04:31:48.966Z,79.01
2017-07-15T04:34:15.331Z,79.08
2017-07-15T04:36:41.712Z,77.21
2017-07-15T04:39:08.132Z,77.72
2017-07-15T04:41:34.691Z,80.27
2017-07-15T04:44:01.067Z,81.09
2017-07-15T04:46:27.462Z,84.15
2017-07-15T04:48:53.822Z,78.49
2017-07-15T04:51:20.205Z,84.25
2017-07-15T04:53:46.594Z,80.74
2017-07-15T04:56:12.983Z,80.89
2017-07-15T04:58:39.379Z,80.20
2017-07-15T05:01:05.838Z,78.48
2017-07-15T05:03:32.224Z,78.16
2017-07-15T05:05:58.632Z,81.56
2017-07-15T05:08:25.032Z,83.94
2017-07-15T05:10:51.463Z,81.04
2017-07-15T05:13:17.938Z,84.76
2017-07-15T05:15:44.371Z,79.50
2017-07-15T05:18:10.795Z,80.98
2017-07-15T05:20:37.245Z,80.00
2017-07-15T05:23:03.690Z,78.93
2017-07-15T05:25:31.236Z,79.50
2017-07-15T05:27:57.611Z,79.29
2017-07-15T05:30:23.997Z,78.98
2017-07-15T05:32:50.449Z,79.03
2017-07-15T05:35:16.822Z,78.75
2017-07-15T05:37:43.461Z,78.66
2017-07-15T05:40:09.860Z,81.32
2017-07-15T05:42:36.234Z,78.63
2017-07-15T05:45:02.615Z,79.23
2017-07-15T05:47:29.045Z,78.81
2017-07-15T05:49:55.445Z,78.03
2017-07-15T05:52:21.845Z,79.54
2017-07-15T05:54:48.214Z,82.06
2017-07-15T05:57:14.592Z,79.45
2017-07-15T05:59:40.961Z,80.66
2017-07-15T06:02:07.361Z,79.19
2017-07-15T06:04:33.790Z,78.72
2017-07-15T06:07:00.164Z,83.80
2017-07-15T06:09:26.798Z,81.03
2017-07-15T06:11:53.214Z,85.41
2017-07-15T06:14:19.557Z,84.37
2017-07-15T06:16:45.934Z,82.12
2017-07-15T06:19:12.330Z,81.77
2017-07-15T06:21:38.677Z,80.64
2017-07-15T06:24:05.016Z,84.05
2017-07-15T06:26:31.340Z,79.41
2017-07-15T06:28:57.704Z,81.10
2017-07-15T06:31:25.646Z,78.71
2017-07-15T06:33:52.001Z,78.86
2017-07-15T06:36:18.334Z,78.91
2017-07-15T06:38:44.689Z,80.43
2017-07-15T06:41:11.181Z,79.56
2017-07-15T06:43:37.536Z,80.07
2017-07-15T06:46:03.940Z,80.05
2017-07-15T06:48:30.289Z,78.24
2017-07-15T06:50:56.650Z,78.80
2017-07-15T06:53:23.422Z,80.51
2017-07-15T06:55:49.822Z,81.37
2017-07-15T06:58:16.171Z,79.64
2017-07-15T07:00:42.531Z,78.33
2017-07-15T07:03:08.903Z,79.52
2017-07-15T07:05:35.304Z,80.26
2017-07-15T07:08:01.699Z,79.71
2017-07-15T07:10:28.099Z,78.47
2017-07-15T07:12:58.472Z,80.84
2017-07-15T07:15:24.880Z,79.55
2017-07-15T07:17:51.256Z,78.31
2017-07-15T07:20:17.677Z,81.99
2017-07-15T07:22:44.070Z,79.39
2017-07-15T07:25:10.514Z,80.04
2017-07-15T07:27:36.891Z,77.76
2017-07-15T07:30:03.359Z,78.15
2017-07-15T07:32:29.842Z,78.19
2017-07-15T07:34:57.165Z,76.65
2017-07-15T07:39:56.404Z,76.29
2017-07-15T07:42:22.836Z,75.88
2017-07-15T07:44:49.245Z,75.95
2017-07-15T07:47:15.620Z,74.82
2017-07-15T07:49:41.988Z,74.80
2017-07-15T07:52:08.364Z,75.40
2017-07-15T07:54:34.730Z,77.50
2017-07-15T07:57:01.081Z,75.14
2017-07-15T07:59:27.467Z,73.42
2017-07-15T08:01:53.819Z,74.16
2017-07-15T08:04:20.164Z,73.58
2017-07-15T08:06:46.540Z,73.97
2017-07-15T08:09:12.900Z,73.98
2017-07-15T08:11:39.231Z,74.14
2017-07-15T08:14:05.633Z,71.99
2017-07-15T08:16:31.977Z,71.14
2017-07-15T08:18:58.350Z,72.43
2017-07-15T08:21:25.393Z,73.59
2017-07-15T08:23:51.786Z,74.95
2017-07-15T08:26:18.565Z,72.06
2017-07-15T08:28:44.899Z,72.44
2017-07-15T08:31:11.304Z,72.27
2017-07-15T08:33:37.653Z,71.34
2017-07-15T08:36:14.572Z,71.99
2017-07-15T08:38:40.934Z,71.97
2017-07-15T08:41:07.764Z,71.71
2017-07-15T08:43:34.155Z,69.97
2017-07-15T08:46:01.349Z,69.97
2017-07-15T08:48:27.760Z,70.07
2017-07-15T08:50:55.545Z,68.59
2017-07-15T08:53:23.774Z,69.12
2017-07-15T08:55:51.031Z,68.82
2017-07-15T08:58:17.428Z,69.50
2017-07-15T09:00:44.678Z,64.06
2017-07-15T09:03:11.077Z,64.88
2017-07-15T09:05:37.528Z,63.32
2017-07-15T09:08:03.956Z,65.03
2017-07-15T09:10:30.371Z,67.84
2017-07-15T09:12:56.825Z,66.77
2017-07-15T09:15:23.287Z,64.52
2017-07-15T09:17:50.687Z,63.18
2017-07-15T09:20:17.477Z,64.50
2017-07-15T09:22:43.914Z,64.42
2017-07-15T09:25:10.629Z,65.04
2017-07-15T09:27:37.039Z,63.56
2017-07-15T09:30:04.498Z,64.55
2017-07-15T09:32:30.909Z,64.55
2017-07-15T09:34:58.186Z,62.41
2017-07-15T09:37:24.577Z,63.20
2017-07-15T09:39:55.387Z,62.07
2017-07-15T09:42:21.886Z,61.73
2017-07-15T09:44:48.269Z,60.60
2017-07-15T09:47:16.141Z,58.07
2017-07-15T09:49:43.061Z,59.74
2017-07-15T09:54:42.586Z,58.86
2017-07-15T09:57:09.175Z,59.92
2017-07-15T09:59:37.835Z,57.24
2017-07-15T10:02:05.889Z,56.64
2017-07-15T10:04:32.393Z,53.16
2017-07-15T10:06:58.851Z,56.95
2017-07-15T10:09:25.378Z,56.92
2017-07-15T10:11:51.807Z,55.54
2017-07-15T10:14:19.580Z,53.63
2017-07-15T10:16:45.988Z,51.90
2017-07-15T10:19:17.976Z,56.29
2017-07-15T10:21:45.198Z,58.11
2017-07-15T10:24:11.637Z,57.40
2017-07-15T10:26:38.808Z,55.83
2017-07-15T10:29:05.299Z,54.16
2017-07-15T10:31:33.293Z,52.18
2017-07-15T10:33:59.769Z,52.99
2017-07-15T10:36:26.341Z,52.52
2017-07-15T10:38:53.531Z,51.60
2017-07-15T10:41:21.067Z,50.92
2017-07-15T10:43:47.479Z,49.16
2017-07-15T10:46:13.866Z,49.91
2017-07-15T10:48:40.527Z,49.09
2017-07-15T10:51:07.561Z,46.83
2017-07-15T10:53:33.954Z,46.46
2017-07-15T10:56:00.391Z,49.55
2017-07-15T10:58:26.767Z,50.17
2017-07-15T11:00:53.147Z,50.65
2017-07-15T11:03:19.502Z,49.77
2017-07-15T11:05:45.889Z,48.33
2017-07-15T11:08:12.347Z,45.84
2017-07-15T11:10:38.731Z,46.84
2017-07-15T11:13:05.075Z,47.25
2017-07-15T11:15:32.471Z,45.35
2017-07-15T11:17:58.813Z,45.75
2017-07-15T11:20:26.755Z,45.22
2017-07-15T11:22:54.108Z,41.83
2017-07-15T11:25:22.384Z,43.86
2017-07-15T11:30:36.718Z,42.62
2017-07-15T11:33:04.038Z,41.94
2017-07-15T11:35:30.443Z,44.16
2017-07-15T11:37:56.863Z,45.72
2017-07-15T11:40:23.215Z,44.82
2017-07-15T11:42:49.563Z,46.17
2017-07-15T11:45:16.076Z,45.07
2017-07-15T11:47:42.479Z,46.22
2017-07-15T11:50:08.848Z,45.61
2017-07-15T11:52:35.313Z,45.11
2017-07-15T11:55:01.692Z,42.63
2017-07-15T11:57:28.100Z,43.11
2017-07-15T11:59:54.491Z,41.58
2017-07-15T12:02:20.843Z,42.36
2017-07-15T12:04:47.220Z,43.55
2017-07-15T12:07:13.609Z,43.07
2017-07-15T12:09:40.014Z,42.19
2017-07-15T12:12:06.682Z,43.22
2017-07-15T12:14:33.067Z,42.25
2017-07-15T12:16:59.402Z,40.50
2017-07-15T12:19:25.751Z,42.34
2017-07-15T12:21:52.097Z,41.78
2017-07-15T12:24:18.475Z,41.32
2017-07-15T12:26:44.898Z,39.02
2017-07-15T12:29:11.236Z,38.56
2017-07-15T12:31:37.595Z,41.60
2017-07-15T12:34:04.032Z,40.38
2017-07-15T12:36:30.434Z,42.32
2017-07-15T12:38:56.780Z,42.61
2017-07-15T12:41:23.192Z,41.78
2017-07-15T12:43:49.563Z,39.67
2017-07-15T12:46:15.947Z,44.89
2017-07-15T12:48:42.300Z,43.27
2017-07-15T12:51:08.685Z,42.36
2017-07-15T12:53:35.108Z,43.02
2017-07-15T12:56:02.300Z,41.19
2017-07-15T12:58:28.668Z,40.75
2017-07-15T13:00:55.053Z,41.58
2017-07-15T13:03:21.472Z,41.96
2017-07-15T13:05:47.835Z,41.91
2017-07-15T13:10:45.440Z,42.82
2017-07-15T13:13:11.878Z,43.22
2017-07-15T13:15:38.247Z,44.55
2017-07-15T13:18:04.600Z,45.09
2017-07-15T13:20:30.974Z,42.51
2017-07-15T13:22:57.339Z,41.65
2017-07-15T13:25:23.717Z,41.19
2017-07-15T13:27:50.099Z,42.63
2017-07-15T13:30:16.489Z,39.36
2017-07-15T13:32:42.832Z,41.92
2017-07-15T13:35:09.194Z,40.40
2017-07-15T13:37:36.345Z,42.08
2017-07-15T13:40:02.747Z,39.82
2017-07-15T13:42:29.473Z,39.65
2017-07-15T13:44:56.427Z,42.24
2017-07-15T13:47:22.866Z,42.41
2017-07-15T13:49:49.425Z,41.43
2017-07-15T13:52:15.900Z,40.81
2017-07-15T13:54:42.336Z,41.60
2017-07-15T13:57:08.683Z,41.08
2017-07-15T13:59:35.082Z,41.07
2017-07-15T14:02:02.638Z,39.76
2017-07-15T14:04:29.347Z,41.34
2017-07-15T14:06:55.956Z,41.58
2017-07-15T14:09:22.528Z,40.17
2017-07-15T14:11:49.119Z,39.51
2017-07-15T14:14:15.839Z,40.96
2017-07-15T14:16:42.230Z,41.26
2017-07-15T14:19:08.874Z,41.43
2017-07-15T14:21:35.262Z,38.94
2017-07-15T14:24:01.623Z,40.29
2017-07-15T14:26:28.011Z,41.31
2017-07-15T14:28:54.415Z,40.31
2017-07-15T14:31:21.525Z,41.12
2017-07-15T14:33:47.901Z,41.66
2017-07-15T14:36:14.300Z,41.55
2017-07-15T14:38:40.680Z,40.89
2017-07-15T14:41:07.040Z,40.86
2017-07-15T14:43:33.411Z,41.42
2017-07-15T14:45:59.809Z,40.32
2017-07-15T14:48:26.223Z,40.30
2017-07-15T14:50:52.616Z,40.82
2017-07-15T14:53:19.469Z,39.26
2017-07-15T14:55:45.897Z,41.71
2017-07-15T14:58:12.789Z,40.00
2017-07-15T15:00:39.292Z,37.71
2017-07-15T15:03:05.682Z,39.55
2017-07-15T15:05:32.078Z,41.35
2017-07-15T15:07:58.513Z,40.62
2017-07-15T15:10:24.900Z,40.84
2017-07-15T15:12:51.314Z,42.71
2017-07-15T15:15:17.771Z,41.06
2017-07-15T15:17:44.211Z,41.93
2017-07-15T15:20:10.652Z,42.15
2017-07-15T15:22:37.407Z,42.48
2017-07-15T15:25:03.744Z,42.03
2017-07-15T15:27:31.041Z,41.61
2017-07-15T15:29:57.506Z,39.53
2017-07-15T15:32:23.892Z,41.62
2017-07-15T15:34:50.296Z,39.89
2017-07-15T15:37:16.655Z,40.00
2017-07-15T15:39:43.049Z,41.93
2017-07-15T15:42:09.462Z,40.33
2017-07-15T15:44:35.914Z,40.36
2017-07-15T15:47:02.312Z,41.31
2017-07-15T15:49:28.719Z,39.80
2017-07-15T15:51:55.119Z,40.97
2017-07-15T15:54:21.477Z,39.47
2017-07-15T15:56:47.887Z,40.31
2017-07-15T15:59:14.294Z,40.92
2017-07-15T16:01:40.645Z,41.59
2017-07-15T16:04:07.026Z,41.72
2017-07-15T16:06:33.380Z,41.84
2017-07-15T16:08:59.729Z,41.31
2017-07-15T16:11:26.089Z,42.18
2017-07-15T16:13:52.491Z,42.10
2017-07-15T16:16:18.904Z,42.88
2017-07-15T16:18:45.481Z,42.71
2017-07-15T16:21:11.883Z,43.30
2017-07-15T16:23:38.247Z,42.16
2017-07-15T16:26:04.669Z,42.59
2017-07-15T16:28:31.101Z,43.23
2017-07-15T16:30:57.503Z,43.05
2017-07-15T16:33:23.882Z,42.63
2017-07-15T16:35:50.282Z,43.80
2017-07-15T16:38:16.660Z,45.82
2017-07-15T16:40:43.041Z,43.54
2017-07-15T16:43:14.653Z,43.07
2017-07-15T16:45:41.050Z,43.31
2017-07-15T16:48:07.432Z,43.07
2017-07-15T16:50:33.792Z,44.15
2017-07-15T16:53:00.136Z,43.49
2017-07-15T16:55:26.460Z,43.70
2017-07-15T16:57:52.843Z,44.46
2017-07-15T17:00:19.201Z,43.54
2017-07-15T17:02:45.784Z,43.93
2017-07-15T17:05:12.151Z,44.61
2017-07-15T17:07:38.567Z,42.70
2017-07-15T17:10:04.959Z,43.43
2017-07-15T17:12:31.410Z,44.73
2017-07-15T17:14:57.760Z,44.65
2017-07-15T17:17:24.121Z,45.56
2017-07-15T17:19:51.053Z,46.72
2017-07-15T17:22:17.521Z,44.82
2017-07-15T17:24:43.890Z,46.20
2017-07-15T17:27:10.258Z,44.31
2017-07-15T17:29:38.233Z,44.73
2017-07-15T17:32:06.765Z,44.89
2017-07-15T17:34:33.278Z,46.08
2017-07-15T17:37:04.489Z,48.21
2017-07-15T17:42:13.999Z,46.52
2017-07-15T17:44:47.333Z,46.59
2017-07-15T17:50:17.151Z,46.63
2017-07-15T17:52:43.526Z,47.29
2017-07-15T17:55:09.875Z,46.45
2017-07-15T17:57:38.098Z,47.69
2017-07-15T18:02:44.475Z,46.15
2017-07-15T18:05:10.913Z,47.00
2017-07-15T18:07:40.253Z,47.57
2017-07-15T18:10:06.996Z,47.56
2017-07-15T18:12:33.553Z,50.61
2017-07-15T18:15:00.912Z,49.62
2017-07-15T18:17:28.774Z,48.10
2017-07-15T18:22:47.986Z,47.44
2017-07-15T18:25:20.419Z,48.20
2017-07-15T18:27:47.361Z,48.61
2017-07-15T18:30:14.741Z,48.38
2017-07-15T18:32:44.181Z,48.10
2017-07-15T18:35:10.933Z,47.92
2017-07-15T18:37:37.307Z,47.99
2017-07-15T18:40:04.018Z,50.62
2017-07-15T18:42:30.674Z,49.53
2017-07-15T18:44:57.079Z,49.51
2017-07-15T18:47:26.340Z,50.62
2017-07-15T18:49:59.616Z,50.11
2017-07-15T18:52:26.330Z,49.67
2017-07-15T18:54:53.552Z,49.74
2017-07-15T18:57:20.293Z,50.45
2017-07-15T18:59:46.699Z,50.94
2017-07-15T19:02:13.071Z,50.88
2017-07-15T19:04:39.415Z,51.48
2017-07-15T19:07:05.900Z,51.71
2017-07-15T19:09:32.668Z,52.11
2017-07-15T19:11:59.036Z,52.82
2017-07-15T19:14:25.961Z,53.35
2017-07-15T19:16:52.408Z,53.52
2017-07-15T19:19:18.756Z,53.98
2017-07-15T19:21:45.123Z,57.73
2017-07-15T19:24:11.499Z,55.03
2017-07-15T19:26:37.885Z,55.06
2017-07-15T19:29:04.276Z,55.67
2017-07-15T19:31:30.651Z,55.69
2017-07-15T19:33:57.014Z,56.20
2017-07-15T19:36:23.372Z,56.21
2017-07-15T19:38:49.745Z,56.05
2017-07-15T19:41:16.113Z,55.91
2017-07-15T19:43:42.932Z,56.96
2017-07-15T19:46:09.294Z,57.92
2017-07-15T19:48:35.642Z,57.38
2017-07-15T19:51:02.024Z,57.41
2017-07-15T19:53:28.463Z,57.23
2017-07-15T19:55:54.830Z,56.90
2017-07-15T19:58:21.205Z,57.21
2017-07-15T20:00:47.519Z,58.03
2017-07-15T20:03:13.903Z,57.40
2017-07-15T20:05:40.260Z,57.26
2017-07-15T20:08:06.629Z,57.10
2017-07-15T20:10:32.978Z,57.60
2017-07-15T20:12:59.332Z,58.07
2017-07-15T20:15:25.703Z,58.08
2017-07-15T20:17:52.144Z,58.23
2017-07-15T20:20:18.559Z,57.51
2017-07-15T20:22:44.948Z,57.97
2017-07-15T20:25:11.293Z,57.77
2017-07-15T20:27:38.142Z,58.46
2017-07-15T20:30:04.546Z,57.81
2017-07-15T20:32:30.903Z,58.29
2017-07-15T20:34:57.330Z,57.64
2017-07-15T20:37:23.716Z,58.46
2017-07-15T20:39:50.106Z,58.64
2017-07-15T20:42:16.485Z,58.53
2017-07-15T20:44:42.872Z,58.33
2017-07-15T20:47:09.250Z,59.10
2017-07-15T20:49:35.630Z,59.43
2017-07-15T20:52:08.133Z,59.70
2017-07-15T20:54:34.481Z,59.97
2017-07-15T20:57:00.840Z,59.93
2017-07-15T20:59:27.305Z,59.92
2017-07-15T21:01:53.789Z,59.41
2017-07-15T21:04:20.200Z,60.12
2017-07-15T21:06:46.612Z,59.93
2017-07-15T21:09:13.023Z,59.08
2017-07-15T21:11:39.401Z,60.07
2017-07-15T21:14:05.729Z,59.79
2017-07-15T21:16:32.116Z,60.09
2017-07-15T21:18:58.515Z,59.88
2017-07-15T21:21:24.868Z,60.02
2017-07-15T21:23:51.251Z,60.08
2017-07-15T21:26:17.630Z,59.74
2017-07-15T21:28:44.015Z,59.93
2017-07-15T21:31:10.378Z,60.59
2017-07-15T21:33:36.740Z,60.30
2017-07-15T21:36:03.119Z,59.99
2017-07-15T21:38:29.505Z,59.62
2017-07-15T21:40:55.833Z,60.22
2017-07-15T21:43:22.173Z,60.78
2017-07-15T21:45:48.531Z,61.35
2017-07-15T21:48:15.024Z,61.55
2017-07-15T21:50:41.557Z,61.18
2017-07-15T21:53:08.163Z,61.68
2017-07-15T21:55:34.718Z,61.29
2017-07-15T21:58:01.292Z,62.18
2017-07-15T22:00:27.789Z,62.52
2017-07-15T22:02:54.422Z,65.64
2017-07-15T22:05:20.965Z,63.25
2017-07-15T22:07:47.501Z,65.90
2017-07-15T22:10:14.058Z,62.70
2017-07-15T22:12:40.572Z,63.47
2017-07-15T22:15:07.187Z,67.82
2017-07-15T22:17:33.743Z,65.28
2017-07-15T22:20:00.389Z,63.18
2017-07-15T22:22:26.879Z,63.89
2017-07-15T22:24:53.721Z,64.29
2017-07-15T22:27:20.404Z,64.11
2017-07-15T22:29:47.021Z,64.21
2017-07-15T22:32:13.664Z,63.93
2017-07-15T22:34:43.716Z,66.48
2017-07-15T22:37:10.336Z,68.04
2017-07-15T22:39:36.884Z,71.11
2017-07-15T22:42:03.384Z,70.76
2017-07-15T22:44:29.931Z,68.57
2017-07-15T22:46:56.427Z,66.98
2017-07-15T22:49:22.962Z,65.29
2017-07-15T22:51:49.497Z,65.33
2017-07-15T22:54:16.825Z,64.43
2017-07-15T22:56:43.327Z,64.09
2017-07-15T22:59:09.935Z,63.52
2017-07-15T23:01:36.496Z,65.19
2017-07-15T23:04:03.616Z,67.08
2017-07-15T23:06:30.157Z,65.74
2017-07-15T23:08:56.727Z,64.20
2017-07-15T23:11:23.275Z,65.80
2017-07-15T23:13:49.797Z,64.35
2017-07-15T23:16:16.338Z,64.22
2017-07-15T23:18:42.830Z,64.13
2017-07-15T23:21:09.368Z,69.21
2017-07-15T23:23:35.851Z,69.99
2017-07-15T23:26:02.313Z,65.93
2017-07-15T23:28:28.806Z,68.01
2017-07-15T23:30:55.325Z,65.78
2017-07-15T23:33:21.853Z,64.84
2017-07-15T23:35:48.342Z,64.35
2017-07-15T23:38:15.529Z,64.80
2017-07-15T23:40:42.081Z,68.33
2017-07-15T23:43:08.563Z,65.29
2017-07-15T23:45:35.030Z,64.47
2017-07-15T23:48:01.503Z,65.35
2017-07-15T23:50:28.095Z,64.99
2017-07-15T23:52:55.566Z,67.34
2017-07-15T23:55:22.101Z,66.85
2017-07-15T23:57:50.406Z,65.17
